sensor_id;sensor_type;location;lat;lon;timestamp;temperature;humidity
12115;DHT22;6121;49.810;6.418;2023-07-16T00:01:32;20.10;99.90
12115;DHT22;6121;49.810;6.418;2023-07-16T00:03:57;20.10;99.90
12115;DHT22;6121;49.810;6.418;2023-07-16T00:06:23;20.20;99.90
12115;DHT22;6121;49.810;6.418;2023-07-16T00:08:49;20.20;99.90
12115;DHT22;6121;49.810;6.418;2023-07-16T00:11:15;20.20;99.90
12115;DHT22;6121;49.810;6.418;2023-07-16T00:13:41;20.10;99.90
12115;DHT22;6121;49.810;6.418;2023-07-16T00:16:12;20.10;99.90
12115;DHT22;6121;49.810;6.418;2023-07-16T00:18:38;20.10;99.90
12115;DHT22;6121;49.810;6.418;2023-07-16T00:21:04;20.00;99.90
12115;DHT22;6121;49.810;6.418;2023-07-16T00:23:30;20.10;99.90
12115;DHT22;6121;49.810;6.418;2023-07-16T00:25:55;20.00;99.90
12115;DHT22;6121;49.810;6.418;2023-07-16T00:28:21;20.00;99.90
12115;DHT22;6121;49.810;6.418;2023-07-16T00:30:47;20.00;99.90
12115;DHT22;6121;49.810;6.418;2023-07-16T00:33:13;20.00;99.90
12115;DHT22;6121;49.810;6.418;2023-07-16T00:35:39;20.10;99.90
12115;DHT22;6121;49.810;6.418;2023-07-16T00:38:11;20.10;99.90
12115;DHT22;6121;49.810;6.418;2023-07-16T00:40:37;20.10;99.90
12115;DHT22;6121;49.810;6.418;2023-07-16T00:43:03;20.10;99.90
12115;DHT22;6121;49.810;6.418;2023-07-16T00:45:29;20.00;99.90
12115;DHT22;6121;49.810;6.418;2023-07-16T00:47:54;20.00;99.90
12115;DHT22;6121;49.810;6.418;2023-07-16T00:50:20;20.00;99.90
12115;DHT22;6121;49.810;6.418;2023-07-16T00:52:46;19.90;99.90
12115;DHT22;6121;49.810;6.418;2023-07-16T00:55:12;19.90;99.90
12115;DHT22;6121;49.810;6.418;2023-07-16T00:57:38;19.90;99.90
12115;DHT22;6121;49.810;6.418;2023-07-16T01:00:06;19.80;99.90
12115;DHT22;6121;49.810;6.418;2023-07-16T01:02:32;19.70;99.90
12115;DHT22;6121;49.810;6.418;2023-07-16T01:04:58;19.60;99.90
12115;DHT22;6121;49.810;6.418;2023-07-16T01:07:25;19.60;99.90
12115;DHT22;6121;49.810;6.418;2023-07-16T01:09:54;19.70;99.90
12115;DHT22;6121;49.810;6.418;2023-07-16T01:12:22;19.50;99.90
12115;DHT22;6121;49.810;6.418;2023-07-16T01:14:49;19.50;99.90
12115;DHT22;6121;49.810;6.418;2023-07-16T01:17:15;19.40;99.90
12115;DHT22;6121;49.810;6.418;2023-07-16T01:19:41;19.40;99.90
12115;DHT22;6121;49.810;6.418;2023-07-16T01:22:38;19.40;99.90
12115;DHT22;6121;49.810;6.418;2023-07-16T01:25:10;19.40;99.90
12115;DHT22;6121;49.810;6.418;2023-07-16T01:30:30;19.20;99.90
12115;DHT22;6121;49.810;6.418;2023-07-16T01:32:57;19.20;99.90
12115;DHT22;6121;49.810;6.418;2023-07-16T01:35:23;19.20;99.90
12115;DHT22;6121;49.810;6.418;2023-07-16T01:37:49;19.10;99.90
12115;DHT22;6121;49.810;6.418;2023-07-16T01:40:15;19.20;99.90
12115;DHT22;6121;49.810;6.418;2023-07-16T01:42:41;19.20;99.90
12115;DHT22;6121;49.810;6.418;2023-07-16T01:45:09;19.20;99.90
12115;DHT22;6121;49.810;6.418;2023-07-16T01:50:29;19.10;99.90
12115;DHT22;6121;49.810;6.418;2023-07-16T01:52:54;19.10;99.90
12115;DHT22;6121;49.810;6.418;2023-07-16T01:55:20;19.10;99.90
12115;DHT22;6121;49.810;6.418;2023-07-16T01:57:46;18.90;99.90
12115;DHT22;6121;49.810;6.418;2023-07-16T02:00:12;18.90;99.90
12115;DHT22;6121;49.810;6.418;2023-07-16T02:02:50;18.90;99.90
12115;DHT22;6121;49.810;6.418;2023-07-16T02:05:16;18.90;99.90
12115;DHT22;6121;49.810;6.418;2023-07-16T02:07:42;18.80;99.90
12115;DHT22;6121;49.810;6.418;2023-07-16T02:10:08;18.80;99.90
12115;DHT22;6121;49.810;6.418;2023-07-16T02:12:33;18.80;99.90
12115;DHT22;6121;49.810;6.418;2023-07-16T02:14:59;18.80;99.90
12115;DHT22;6121;49.810;6.418;2023-07-16T02:17:25;18.70;99.90
12115;DHT22;6121;49.810;6.418;2023-07-16T02:19:51;18.70;99.90
12115;DHT22;6121;49.810;6.418;2023-07-16T02:22:17;18.70;99.90
12115;DHT22;6121;49.810;6.418;2023-07-16T02:24:42;18.70;99.90
12115;DHT22;6121;49.810;6.418;2023-07-16T02:27:08;18.70;99.90
12115;DHT22;6121;49.810;6.418;2023-07-16T02:29:34;18.60;99.90
12115;DHT22;6121;49.810;6.418;2023-07-16T02:32:00;18.60;99.90
12115;DHT22;6121;49.810;6.418;2023-07-16T02:34:25;18.60;99.90
12115;DHT22;6121;49.810;6.418;2023-07-16T02:36:51;18.60;99.90
12115;DHT22;6121;49.810;6.418;2023-07-16T02:39:17;18.70;99.90
12115;DHT22;6121;49.810;6.418;2023-07-16T02:41:43;18.70;99.90
12115;DHT22;6121;49.810;6.418;2023-07-16T02:44:09;18.70;99.90
12115;DHT22;6121;49.810;6.418;2023-07-16T02:46:34;18.60;99.90
12115;DHT22;6121;49.810;6.418;2023-07-16T02:49:02;18.50;99.90
12115;DHT22;6121;49.810;6.418;2023-07-16T02:51:29;18.50;99.90
12115;DHT22;6121;49.810;6.418;2023-07-16T02:53:55;18.50;99.90
12115;DHT22;6121;49.810;6.418;2023-07-16T02:56:21;18.40;99.90
12115;DHT22;6121;49.810;6.418;2023-07-16T02:58:46;18.40;99.90
12115;DHT22;6121;49.810;6.418;2023-07-16T03:01:14;18.30;99.90
12115;DHT22;6121;49.810;6.418;2023-07-16T03:03:40;18.30;99.90
12115;DHT22;6121;49.810;6.418;2023-07-16T03:06:07;18.40;99.90
12115;DHT22;6121;49.810;6.418;2023-07-16T03:08:34;18.30;99.90
12115;DHT22;6121;49.810;6.418;2023-07-16T03:10:59;18.40;99.90
12115;DHT22;6121;49.810;6.418;2023-07-16T03:13:26;18.30;99.90
12115;DHT22;6121;49.810;6.418;2023-07-16T03:15:52;18.30;99.90
12115;DHT22;6121;49.810;6.418;2023-07-16T03:18:18;18.20;99.90
12115;DHT22;6121;49.810;6.418;2023-07-16T03:20:44;18.10;99.90
12115;DHT22;6121;49.810;6.418;2023-07-16T03:23:10;18.10;99.90
12115;DHT22;6121;49.810;6.418;2023-07-16T03:25:36;18.10;99.90
12115;DHT22;6121;49.810;6.418;2023-07-16T03:28:02;18.10;99.90
12115;DHT22;6121;49.810;6.418;2023-07-16T03:30:31;18.00;99.90
12115;DHT22;6121;49.810;6.418;2023-07-16T03:32:57;17.90;99.90
12115;DHT22;6121;49.810;6.418;2023-07-16T03:35:25;17.90;99.90
12115;DHT22;6121;49.810;6.418;2023-07-16T03:37:51;17.80;99.90
12115;DHT22;6121;49.810;6.418;2023-07-16T03:40:18;17.80;99.90
12115;DHT22;6121;49.810;6.418;2023-07-16T03:42:46;17.70;99.90
12115;DHT22;6121;49.810;6.418;2023-07-16T03:45:12;17.70;99.90
12115;DHT22;6121;49.810;6.418;2023-07-16T03:47:38;17.80;99.90
12115;DHT22;6121;49.810;6.418;2023-07-16T03:50:04;17.70;99.90
12115;DHT22;6121;49.810;6.418;2023-07-16T03:52:30;17.60;99.90
12115;DHT22;6121;49.810;6.418;2023-07-16T03:54:55;17.60;99.90
12115;DHT22;6121;49.810;6.418;2023-07-16T03:57:21;17.50;99.90
12115;DHT22;6121;49.810;6.418;2023-07-16T03:59:47;17.60;99.90
12115;DHT22;6121;49.810;6.418;2023-07-16T04:02:14;17.60;99.90
12115;DHT22;6121;49.810;6.418;2023-07-16T04:04:40;17.60;99.90
12115;DHT22;6121;49.810;6.418;2023-07-16T04:07:06;17.60;99.90
12115;DHT22;6121;49.810;6.418;2023-07-16T04:09:31;17.60;99.90
12115;DHT22;6121;49.810;6.418;2023-07-16T04:11:57;17.60;99.90
12115;DHT22;6121;49.810;6.418;2023-07-16T04:14:23;17.60;99.90
12115;DHT22;6121;49.810;6.418;2023-07-16T04:16:49;17.60;99.90
12115;DHT22;6121;49.810;6.418;2023-07-16T04:19:14;17.60;99.90
12115;DHT22;6121;49.810;6.418;2023-07-16T04:21:40;17.60;99.90
12115;DHT22;6121;49.810;6.418;2023-07-16T04:24:06;17.60;99.90
12115;DHT22;6121;49.810;6.418;2023-07-16T04:26:32;17.50;99.90
12115;DHT22;6121;49.810;6.418;2023-07-16T04:28:58;17.50;99.90
12115;DHT22;6121;49.810;6.418;2023-07-16T04:31:24;17.50;99.90
12115;DHT22;6121;49.810;6.418;2023-07-16T04:33:50;17.50;99.90
12115;DHT22;6121;49.810;6.418;2023-07-16T04:36:16;17.50;99.90
12115;DHT22;6121;49.810;6.418;2023-07-16T04:38:42;17.50;99.90
12115;DHT22;6121;49.810;6.418;2023-07-16T04:41:07;17.50;99.90
12115;DHT22;6121;49.810;6.418;2023-07-16T04:43:33;17.50;99.90
12115;DHT22;6121;49.810;6.418;2023-07-16T04:45:59;17.60;99.90
12115;DHT22;6121;49.810;6.418;2023-07-16T04:48:26;17.60;99.90
12115;DHT22;6121;49.810;6.418;2023-07-16T04:50:52;17.60;99.90
12115;DHT22;6121;49.810;6.418;2023-07-16T04:53:18;17.70;99.90
12115;DHT22;6121;49.810;6.418;2023-07-16T04:55:44;17.80;99.90
12115;DHT22;6121;49.810;6.418;2023-07-16T04:58:14;17.80;99.90
12115;DHT22;6121;49.810;6.418;2023-07-16T05:00:41;17.80;99.90
12115;DHT22;6121;49.810;6.418;2023-07-16T05:03:07;17.80;99.90
12115;DHT22;6121;49.810;6.418;2023-07-16T05:05:32;17.80;99.90
12115;DHT22;6121;49.810;6.418;2023-07-16T05:07:58;17.90;99.90
12115;DHT22;6121;49.810;6.418;2023-07-16T05:10:24;17.90;99.90
12115;DHT22;6121;49.810;6.418;2023-07-16T05:12:50;17.90;99.90
12115;DHT22;6121;49.810;6.418;2023-07-16T05:15:16;18.00;99.90
12115;DHT22;6121;49.810;6.418;2023-07-16T05:17:42;18.10;99.90
12115;DHT22;6121;49.810;6.418;2023-07-16T05:20:08;18.00;99.90
12115;DHT22;6121;49.810;6.418;2023-07-16T05:22:37;18.10;99.90
12115;DHT22;6121;49.810;6.418;2023-07-16T05:25:04;18.30;99.90
12115;DHT22;6121;49.810;6.418;2023-07-16T05:27:30;18.30;99.90
12115;DHT22;6121;49.810;6.418;2023-07-16T05:29:55;18.40;99.90
12115;DHT22;6121;49.810;6.418;2023-07-16T05:32:21;18.50;99.90
12115;DHT22;6121;49.810;6.418;2023-07-16T05:34:47;18.70;99.90
12115;DHT22;6121;49.810;6.418;2023-07-16T05:37:13;18.70;99.90
12115;DHT22;6121;49.810;6.418;2023-07-16T05:39:39;18.80;99.90
12115;DHT22;6121;49.810;6.418;2023-07-16T05:42:05;18.70;99.90
12115;DHT22;6121;49.810;6.418;2023-07-16T05:44:31;18.90;99.90
12115;DHT22;6121;49.810;6.418;2023-07-16T05:46:57;19.00;99.90
12115;DHT22;6121;49.810;6.418;2023-07-16T05:49:24;19.00;99.90
12115;DHT22;6121;49.810;6.418;2023-07-16T05:51:51;19.10;99.90
12115;DHT22;6121;49.810;6.418;2023-07-16T05:54:17;19.20;99.90
12115;DHT22;6121;49.810;6.418;2023-07-16T05:56:43;19.30;99.90
12115;DHT22;6121;49.810;6.418;2023-07-16T05:59:09;19.40;99.90
12115;DHT22;6121;49.810;6.418;2023-07-16T06:01:35;19.60;99.90
12115;DHT22;6121;49.810;6.418;2023-07-16T06:04:01;19.60;99.90
12115;DHT22;6121;49.810;6.418;2023-07-16T06:06:28;19.70;99.90
12115;DHT22;6121;49.810;6.418;2023-07-16T06:08:56;19.80;99.90
12115;DHT22;6121;49.810;6.418;2023-07-16T06:11:22;20.00;99.90
12115;DHT22;6121;49.810;6.418;2023-07-16T06:13:47;20.10;99.90
12115;DHT22;6121;49.810;6.418;2023-07-16T06:16:13;20.20;99.90
12115;DHT22;6121;49.810;6.418;2023-07-16T06:18:40;20.30;99.90
12115;DHT22;6121;49.810;6.418;2023-07-16T06:21:06;20.40;99.90
12115;DHT22;6121;49.810;6.418;2023-07-16T06:23:31;20.50;99.90
12115;DHT22;6121;49.810;6.418;2023-07-16T06:25:57;20.50;99.90
12115;DHT22;6121;49.810;6.418;2023-07-16T06:28:23;20.60;99.90
12115;DHT22;6121;49.810;6.418;2023-07-16T06:30:50;20.80;99.90
12115;DHT22;6121;49.810;6.418;2023-07-16T06:33:18;21.00;99.90
12115;DHT22;6121;49.810;6.418;2023-07-16T06:35:47;21.00;99.90
12115;DHT22;6121;49.810;6.418;2023-07-16T06:38:14;21.20;99.90
12115;DHT22;6121;49.810;6.418;2023-07-16T06:40:46;20.80;98.70
12115;DHT22;6121;49.810;6.418;2023-07-16T06:43:13;20.80;99.50
12115;DHT22;6121;49.810;6.418;2023-07-16T06:45:38;21.10;99.50
12115;DHT22;6121;49.810;6.418;2023-07-16T06:48:06;21.30;99.30
12115;DHT22;6121;49.810;6.418;2023-07-16T06:50:32;21.60;98.60
12115;DHT22;6121;49.810;6.418;2023-07-16T06:52:58;21.70;98.60
12115;DHT22;6121;49.810;6.418;2023-07-16T06:55:24;21.90;98.40
12115;DHT22;6121;49.810;6.418;2023-07-16T06:57:49;22.00;97.80
12115;DHT22;6121;49.810;6.418;2023-07-16T07:00:15;22.10;97.40
12115;DHT22;6121;49.810;6.418;2023-07-16T07:02:41;22.20;97.20
12115;DHT22;6121;49.810;6.418;2023-07-16T07:05:07;22.30;96.70
12115;DHT22;6121;49.810;6.418;2023-07-16T07:07:33;22.30;96.40
12115;DHT22;6121;49.810;6.418;2023-07-16T07:09:59;22.40;96.00
12115;DHT22;6121;49.810;6.418;2023-07-16T07:12:25;22.40;95.60
12115;DHT22;6121;49.810;6.418;2023-07-16T07:14:51;22.40;96.00
12115;DHT22;6121;49.810;6.418;2023-07-16T07:17:17;22.60;95.60
12115;DHT22;6121;49.810;6.418;2023-07-16T07:19:43;22.90;95.20
12115;DHT22;6121;49.810;6.418;2023-07-16T07:22:10;23.00;94.90
12115;DHT22;6121;49.810;6.418;2023-07-16T07:24:35;23.10;94.70
12115;DHT22;6121;49.810;6.418;2023-07-16T07:27:02;23.30;94.20
12115;DHT22;6121;49.810;6.418;2023-07-16T07:29:28;23.30;94.00
12115;DHT22;6121;49.810;6.418;2023-07-16T07:31:53;23.40;93.80
12115;DHT22;6121;49.810;6.418;2023-07-16T07:34:19;23.40;93.30
12115;DHT22;6121;49.810;6.418;2023-07-16T07:36:47;23.20;93.70
12115;DHT22;6121;49.810;6.418;2023-07-16T07:39:14;23.40;93.40
12115;DHT22;6121;49.810;6.418;2023-07-16T07:41:40;23.60;93.50
12115;DHT22;6121;49.810;6.418;2023-07-16T07:44:06;23.70;93.50
12115;DHT22;6121;49.810;6.418;2023-07-16T07:46:31;23.90;93.40
12115;DHT22;6121;49.810;6.418;2023-07-16T07:48:57;24.10;93.50
12115;DHT22;6121;49.810;6.418;2023-07-16T07:51:23;24.40;93.60
12115;DHT22;6121;49.810;6.418;2023-07-16T07:53:49;24.70;93.50
12115;DHT22;6121;49.810;6.418;2023-07-16T07:56:15;24.90;92.90
12115;DHT22;6121;49.810;6.418;2023-07-16T07:58:41;24.70;92.60
12115;DHT22;6121;49.810;6.418;2023-07-16T08:01:07;24.90;92.10
12115;DHT22;6121;49.810;6.418;2023-07-16T08:03:34;24.90;92.40
12115;DHT22;6121;49.810;6.418;2023-07-16T08:06:00;24.90;92.00
12115;DHT22;6121;49.810;6.418;2023-07-16T08:08:27;24.70;91.90
12115;DHT22;6121;49.810;6.418;2023-07-16T08:10:54;24.90;92.00
12115;DHT22;6121;49.810;6.418;2023-07-16T08:13:20;25.10;91.30
12115;DHT22;6121;49.810;6.418;2023-07-16T08:15:47;25.20;91.20
12115;DHT22;6121;49.810;6.418;2023-07-16T08:18:14;25.50;91.00
12115;DHT22;6121;49.810;6.418;2023-07-16T08:20:39;25.50;91.00
12115;DHT22;6121;49.810;6.418;2023-07-16T08:23:06;25.70;90.60
12115;DHT22;6121;49.810;6.418;2023-07-16T08:25:32;25.50;89.80
12115;DHT22;6121;49.810;6.418;2023-07-16T08:27:58;25.60;91.10
12115;DHT22;6121;49.810;6.418;2023-07-16T08:30:24;25.40;90.80
12115;DHT22;6121;49.810;6.418;2023-07-16T08:32:50;25.00;91.10
12115;DHT22;6121;49.810;6.418;2023-07-16T08:35:17;25.30;91.20
12115;DHT22;6121;49.810;6.418;2023-07-16T08:37:45;25.50;90.70
12115;DHT22;6121;49.810;6.418;2023-07-16T08:40:12;25.50;91.30
12115;DHT22;6121;49.810;6.418;2023-07-16T08:42:39;25.70;90.90
12115;DHT22;6121;49.810;6.418;2023-07-16T08:45:06;25.70;90.20
12115;DHT22;6121;49.810;6.418;2023-07-16T08:47:34;25.70;90.30
12115;DHT22;6121;49.810;6.418;2023-07-16T08:50:01;26.10;90.10
12115;DHT22;6121;49.810;6.418;2023-07-16T08:52:27;25.90;87.80
12115;DHT22;6121;49.810;6.418;2023-07-16T08:54:53;25.90;88.90
12115;DHT22;6121;49.810;6.418;2023-07-16T08:57:20;25.90;87.90
12115;DHT22;6121;49.810;6.418;2023-07-16T08:59:50;26.10;88.00
12115;DHT22;6121;49.810;6.418;2023-07-16T09:02:20;26.30;87.20
12115;DHT22;6121;49.810;6.418;2023-07-16T09:04:47;26.00;87.40
12115;DHT22;6121;49.810;6.418;2023-07-16T09:07:15;26.20;86.40
12115;DHT22;6121;49.810;6.418;2023-07-16T09:09:42;26.40;84.80
12115;DHT22;6121;49.810;6.418;2023-07-16T09:12:12;26.10;85.50
12115;DHT22;6121;49.810;6.418;2023-07-16T09:14:40;26.70;85.10
12115;DHT22;6121;49.810;6.418;2023-07-16T09:17:06;26.90;82.90
12115;DHT22;6121;49.810;6.418;2023-07-16T09:19:32;26.00;82.80
12115;DHT22;6121;49.810;6.418;2023-07-16T09:21:58;25.80;83.80
12115;DHT22;6121;49.810;6.418;2023-07-16T09:24:25;26.10;84.90
12115;DHT22;6121;49.810;6.418;2023-07-16T09:26:54;26.10;85.10
12115;DHT22;6121;49.810;6.418;2023-07-16T09:29:25;26.20;83.30
12115;DHT22;6121;49.810;6.418;2023-07-16T09:31:59;26.40;83.30
12115;DHT22;6121;49.810;6.418;2023-07-16T09:34:29;26.20;82.50
12115;DHT22;6121;49.810;6.418;2023-07-16T09:36:57;26.20;82.00
12115;DHT22;6121;49.810;6.418;2023-07-16T09:39:23;25.90;81.90
12115;DHT22;6121;49.810;6.418;2023-07-16T09:41:50;25.80;82.70
12115;DHT22;6121;49.810;6.418;2023-07-16T09:44:17;26.00;82.90
12115;DHT22;6121;49.810;6.418;2023-07-16T09:46:43;26.10;82.60
12115;DHT22;6121;49.810;6.418;2023-07-16T09:49:15;26.20;82.50
12115;DHT22;6121;49.810;6.418;2023-07-16T09:51:43;26.70;81.10
12115;DHT22;6121;49.810;6.418;2023-07-16T09:54:13;27.10;81.70
12115;DHT22;6121;49.810;6.418;2023-07-16T09:56:49;26.80;80.70
12115;DHT22;6121;49.810;6.418;2023-07-16T09:59:20;26.70;80.50
12115;DHT22;6121;49.810;6.418;2023-07-16T10:01:46;27.20;77.40
12115;DHT22;6121;49.810;6.418;2023-07-16T10:04:18;27.40;77.80
12115;DHT22;6121;49.810;6.418;2023-07-16T10:06:55;27.80;77.30
12115;DHT22;6121;49.810;6.418;2023-07-16T10:09:50;27.70;76.60
12115;DHT22;6121;49.810;6.418;2023-07-16T10:12:18;28.00;73.50
12115;DHT22;6121;49.810;6.418;2023-07-16T10:14:47;28.10;74.20
12115;DHT22;6121;49.810;6.418;2023-07-16T10:17:20;28.10;73.80
12115;DHT22;6121;49.810;6.418;2023-07-16T10:22:42;28.40;73.50
12115;DHT22;6121;49.810;6.418;2023-07-16T10:27:46;27.70;73.60
12115;DHT22;6121;49.810;6.418;2023-07-16T10:30:12;28.00;72.80
12115;DHT22;6121;49.810;6.418;2023-07-16T10:32:38;28.50;71.90
12115;DHT22;6121;49.810;6.418;2023-07-16T10:35:06;28.50;71.00
12115;DHT22;6121;49.810;6.418;2023-07-16T10:37:34;28.20;70.80
12115;DHT22;6121;49.810;6.418;2023-07-16T10:40:01;28.70;71.30
12115;DHT22;6121;49.810;6.418;2023-07-16T10:42:29;29.00;70.70
12115;DHT22;6121;49.810;6.418;2023-07-16T10:44:58;28.90;70.20
12115;DHT22;6121;49.810;6.418;2023-07-16T10:47:32;29.20;70.80
12115;DHT22;6121;49.810;6.418;2023-07-16T10:49:59;29.30;70.50
12115;DHT22;6121;49.810;6.418;2023-07-16T10:52:25;29.10;71.30
12115;DHT22;6121;49.810;6.418;2023-07-16T10:54:52;29.40;71.10
12115;DHT22;6121;49.810;6.418;2023-07-16T10:57:24;29.70;70.90
12115;DHT22;6121;49.810;6.418;2023-07-16T10:59:55;29.50;68.10
12115;DHT22;6121;49.810;6.418;2023-07-16T11:02:22;29.10;69.20
12115;DHT22;6121;49.810;6.418;2023-07-16T11:04:49;29.30;69.80
12115;DHT22;6121;49.810;6.418;2023-07-16T11:07:15;29.20;69.20
12115;DHT22;6121;49.810;6.418;2023-07-16T11:09:49;28.80;67.20
12115;DHT22;6121;49.810;6.418;2023-07-16T11:12:17;28.90;67.00
12115;DHT22;6121;49.810;6.418;2023-07-16T11:14:55;28.40;68.10
12115;DHT22;6121;49.810;6.418;2023-07-16T11:17:23;28.60;68.20
12115;DHT22;6121;49.810;6.418;2023-07-16T11:19:51;28.80;68.50
12115;DHT22;6121;49.810;6.418;2023-07-16T11:22:18;28.60;68.10
12115;DHT22;6121;49.810;6.418;2023-07-16T11:24:49;28.60;67.20
12115;DHT22;6121;49.810;6.418;2023-07-16T11:27:17;28.60;68.30
12115;DHT22;6121;49.810;6.418;2023-07-16T11:29:50;28.80;67.00
12115;DHT22;6121;49.810;6.418;2023-07-16T11:32:42;28.90;66.40
12115;DHT22;6121;49.810;6.418;2023-07-16T11:35:10;28.90;65.20
12115;DHT22;6121;49.810;6.418;2023-07-16T11:37:36;29.10;67.10
12115;DHT22;6121;49.810;6.418;2023-07-16T11:40:07;29.40;66.40
12115;DHT22;6121;49.810;6.418;2023-07-16T11:42:37;29.30;66.90
12115;DHT22;6121;49.810;6.418;2023-07-16T11:45:04;29.40;65.70
12115;DHT22;6121;49.810;6.418;2023-07-16T11:47:32;29.00;65.00
12115;DHT22;6121;49.810;6.418;2023-07-16T11:49:58;28.80;66.60
12115;DHT22;6121;49.810;6.418;2023-07-16T11:52:28;28.90;65.90
12115;DHT22;6121;49.810;6.418;2023-07-16T11:54:56;28.90;66.20
12115;DHT22;6121;49.810;6.418;2023-07-16T11:57:23;29.10;66.50
12115;DHT22;6121;49.810;6.418;2023-07-16T11:59:49;29.20;64.60
12115;DHT22;6121;49.810;6.418;2023-07-16T12:02:14;29.20;65.70
12115;DHT22;6121;49.810;6.418;2023-07-16T12:04:40;29.40;65.00
12115;DHT22;6121;49.810;6.418;2023-07-16T12:07:07;29.40;65.90
12115;DHT22;6121;49.810;6.418;2023-07-16T12:09:32;29.00;65.80
12115;DHT22;6121;49.810;6.418;2023-07-16T12:11:59;28.70;64.90
12115;DHT22;6121;49.810;6.418;2023-07-16T12:14:25;28.60;66.30
12115;DHT22;6121;49.810;6.418;2023-07-16T12:16:51;28.90;65.70
12115;DHT22;6121;49.810;6.418;2023-07-16T12:19:16;29.10;65.70
12115;DHT22;6121;49.810;6.418;2023-07-16T12:21:42;29.10;65.00
12115;DHT22;6121;49.810;6.418;2023-07-16T12:24:08;29.00;66.10
12115;DHT22;6121;49.810;6.418;2023-07-16T12:26:34;28.90;63.70
12115;DHT22;6121;49.810;6.418;2023-07-16T12:29:00;28.80;65.00
12115;DHT22;6121;49.810;6.418;2023-07-16T12:31:30;28.80;65.00
12115;DHT22;6121;49.810;6.418;2023-07-16T12:33:57;28.80;65.20
12115;DHT22;6121;49.810;6.418;2023-07-16T12:36:23;28.70;65.50
12115;DHT22;6121;49.810;6.418;2023-07-16T12:38:49;28.70;67.00
12115;DHT22;6121;49.810;6.418;2023-07-16T12:41:14;28.60;65.70
12115;DHT22;6121;49.810;6.418;2023-07-16T12:43:41;28.40;66.90
12115;DHT22;6121;49.810;6.418;2023-07-16T12:46:06;28.50;66.40
12115;DHT22;6121;49.810;6.418;2023-07-16T12:48:33;28.40;66.90
12115;DHT22;6121;49.810;6.418;2023-07-16T12:50:59;28.40;66.40
12115;DHT22;6121;49.810;6.418;2023-07-16T12:53:25;28.50;66.40
12115;DHT22;6121;49.810;6.418;2023-07-16T12:55:51;28.60;66.70
12115;DHT22;6121;49.810;6.418;2023-07-16T12:58:17;28.60;63.60
12115;DHT22;6121;49.810;6.418;2023-07-16T13:00:43;28.30;66.30
12115;DHT22;6121;49.810;6.418;2023-07-16T13:03:10;28.30;67.30
12115;DHT22;6121;49.810;6.418;2023-07-16T13:05:38;28.30;67.10
12115;DHT22;6121;49.810;6.418;2023-07-16T13:08:04;28.50;66.20
12115;DHT22;6121;49.810;6.418;2023-07-16T13:10:30;28.50;65.30
12115;DHT22;6121;49.810;6.418;2023-07-16T13:12:56;28.30;65.00
12115;DHT22;6121;49.810;6.418;2023-07-16T13:15:22;28.00;65.40
12115;DHT22;6121;49.810;6.418;2023-07-16T13:17:47;27.80;66.30
12115;DHT22;6121;49.810;6.418;2023-07-16T13:20:14;27.60;64.90
12115;DHT22;6121;49.810;6.418;2023-07-16T13:22:40;27.70;65.60
12115;DHT22;6121;49.810;6.418;2023-07-16T13:25:06;27.90;65.90
12115;DHT22;6121;49.810;6.418;2023-07-16T13:27:32;27.80;65.40
12115;DHT22;6121;49.810;6.418;2023-07-16T13:29:58;27.90;66.00
12115;DHT22;6121;49.810;6.418;2023-07-16T13:32:24;27.90;65.70
12115;DHT22;6121;49.810;6.418;2023-07-16T13:34:50;27.90;65.80
12115;DHT22;6121;49.810;6.418;2023-07-16T13:37:15;27.80;65.80
12115;DHT22;6121;49.810;6.418;2023-07-16T13:39:41;27.90;66.70
12115;DHT22;6121;49.810;6.418;2023-07-16T13:42:07;27.60;64.70
12115;DHT22;6121;49.810;6.418;2023-07-16T13:44:33;27.60;65.80
12115;DHT22;6121;49.810;6.418;2023-07-16T13:46:59;27.50;64.50
12115;DHT22;6121;49.810;6.418;2023-07-16T13:49:25;27.30;66.60
12115;DHT22;6121;49.810;6.418;2023-07-16T13:51:51;27.00;67.60
12115;DHT22;6121;49.810;6.418;2023-07-16T13:54:16;27.00;67.90
12115;DHT22;6121;49.810;6.418;2023-07-16T13:56:42;27.10;67.60
12115;DHT22;6121;49.810;6.418;2023-07-16T13:59:08;27.30;66.60
12115;DHT22;6121;49.810;6.418;2023-07-16T14:01:38;27.30;66.90
12115;DHT22;6121;49.810;6.418;2023-07-16T14:04:04;27.30;68.20
12115;DHT22;6121;49.810;6.418;2023-07-16T14:06:30;27.30;67.50
12115;DHT22;6121;49.810;6.418;2023-07-16T14:08:59;27.30;67.20
12115;DHT22;6121;49.810;6.418;2023-07-16T14:11:26;27.30;67.40
12115;DHT22;6121;49.810;6.418;2023-07-16T14:13:52;27.40;67.30
12115;DHT22;6121;49.810;6.418;2023-07-16T14:16:19;27.40;68.30
12115;DHT22;6121;49.810;6.418;2023-07-16T14:18:49;27.40;68.30
12115;DHT22;6121;49.810;6.418;2023-07-16T14:21:15;27.30;68.00
12115;DHT22;6121;49.810;6.418;2023-07-16T14:23:41;27.50;67.90
12115;DHT22;6121;49.810;6.418;2023-07-16T14:26:07;27.40;68.20
12115;DHT22;6121;49.810;6.418;2023-07-16T14:28:33;27.40;67.70
12115;DHT22;6121;49.810;6.418;2023-07-16T14:30:58;27.30;68.00
12115;DHT22;6121;49.810;6.418;2023-07-16T14:33:24;27.40;68.00
12115;DHT22;6121;49.810;6.418;2023-07-16T14:35:50;27.40;68.00
12115;DHT22;6121;49.810;6.418;2023-07-16T14:38:16;27.50;68.10
12115;DHT22;6121;49.810;6.418;2023-07-16T14:40:41;27.40;68.70
12115;DHT22;6121;49.810;6.418;2023-07-16T14:43:07;27.20;68.20
12115;DHT22;6121;49.810;6.418;2023-07-16T14:45:34;27.00;68.00
12115;DHT22;6121;49.810;6.418;2023-07-16T14:48:00;26.80;68.50
12115;DHT22;6121;49.810;6.418;2023-07-16T14:50:26;26.90;67.40
12115;DHT22;6121;49.810;6.418;2023-07-16T14:52:53;26.80;66.60
12115;DHT22;6121;49.810;6.418;2023-07-16T14:55:19;26.80;67.90
12115;DHT22;6121;49.810;6.418;2023-07-16T14:57:44;26.90;66.50
12115;DHT22;6121;49.810;6.418;2023-07-16T15:00:11;26.80;66.70
12115;DHT22;6121;49.810;6.418;2023-07-16T15:02:39;26.70;67.10
12115;DHT22;6121;49.810;6.418;2023-07-16T15:05:05;26.70;67.80
12115;DHT22;6121;49.810;6.418;2023-07-16T15:07:31;26.80;67.00
12115;DHT22;6121;49.810;6.418;2023-07-16T15:09:57;26.90;68.00
12115;DHT22;6121;49.810;6.418;2023-07-16T15:12:22;26.90;66.10
12115;DHT22;6121;49.810;6.418;2023-07-16T15:14:48;26.70;66.20
12115;DHT22;6121;49.810;6.418;2023-07-16T15:17:14;26.70;66.60
12115;DHT22;6121;49.810;6.418;2023-07-16T15:19:40;26.60;67.20
12115;DHT22;6121;49.810;6.418;2023-07-16T15:22:09;26.40;66.70
12115;DHT22;6121;49.810;6.418;2023-07-16T15:24:35;26.30;67.40
12115;DHT22;6121;49.810;6.418;2023-07-16T15:27:01;26.20;68.00
12115;DHT22;6121;49.810;6.418;2023-07-16T15:29:29;26.30;68.10
12115;DHT22;6121;49.810;6.418;2023-07-16T15:31:55;26.20;68.80
12115;DHT22;6121;49.810;6.418;2023-07-16T15:34:21;26.20;68.10
12115;DHT22;6121;49.810;6.418;2023-07-16T15:36:46;26.20;68.00
12115;DHT22;6121;49.810;6.418;2023-07-16T15:39:12;26.20;68.90
12115;DHT22;6121;49.810;6.418;2023-07-16T15:41:38;26.30;67.60
12115;DHT22;6121;49.810;6.418;2023-07-16T15:44:04;26.30;68.60
12115;DHT22;6121;49.810;6.418;2023-07-16T15:46:30;26.30;68.10
12115;DHT22;6121;49.810;6.418;2023-07-16T15:48:57;26.30;68.50
12115;DHT22;6121;49.810;6.418;2023-07-16T15:51:22;26.40;67.70
12115;DHT22;6121;49.810;6.418;2023-07-16T15:53:53;26.40;68.70